sensor_id;sensor_type;location;lat;lon;timestamp;noise_LAeq;noise_LA_min;noise_LA_max;noise_LA01;noise_LA95
61270;Laerm;47150;53.032;8.960;2023-05-19T00:01:07;38.83;37.52;39.96;;
61270;Laerm;47150;53.032;8.960;2023-05-19T00:03:34;38.83;37.40;40.02;;
61270;Laerm;47150;53.032;8.960;2023-05-19T00:06:01;38.83;37.42;39.99;;
61270;Laerm;47150;53.032;8.960;2023-05-19T00:08:30;38.82;37.46;40.00;;
61270;Laerm;47150;53.032;8.960;2023-05-19T00:10:56;38.80;37.53;39.91;;
61270;Laerm;47150;53.032;8.960;2023-05-19T00:13:22;38.79;37.49;40.03;;
61270;Laerm;47150;53.032;8.960;2023-05-19T00:15:49;38.78;37.33;40.02;;
61270;Laerm;47150;53.032;8.960;2023-05-19T00:18:15;38.76;37.51;39.99;;
61270;Laerm;47150;53.032;8.960;2023-05-19T00:20:41;38.74;37.38;39.80;;
61270;Laerm;47150;53.032;8.960;2023-05-19T00:23:06;38.73;37.43;41.53;;
61270;Laerm;47150;53.032;8.960;2023-05-19T00:25:31;38.69;37.43;41.32;;
61270;Laerm;47150;53.032;8.960;2023-05-19T00:27:57;38.65;37.26;39.88;;
61270;Laerm;47150;53.032;8.960;2023-05-19T00:30:23;38.62;37.32;39.99;;
61270;Laerm;47150;53.032;8.960;2023-05-19T00:32:48;38.60;37.24;39.75;;
61270;Laerm;47150;53.032;8.960;2023-05-19T00:35:14;38.59;37.42;39.67;;
61270;Laerm;47150;53.032;8.960;2023-05-19T00:37:40;38.58;37.25;39.68;;
61270;Laerm;47150;53.032;8.960;2023-05-19T00:40:06;38.59;37.35;39.78;;
61270;Laerm;47150;53.032;8.960;2023-05-19T00:42:32;38.61;37.30;39.79;;
61270;Laerm;47150;53.032;8.960;2023-05-19T00:44:57;38.60;37.39;41.66;;
61270;Laerm;47150;53.032;8.960;2023-05-19T00:47:23;38.61;37.41;39.96;;
61270;Laerm;47150;53.032;8.960;2023-05-19T00:49:48;38.65;37.41;39.80;;
61270;Laerm;47150;53.032;8.960;2023-05-19T00:52:14;38.66;37.48;39.94;;
61270;Laerm;47150;53.032;8.960;2023-05-19T00:54:39;38.66;37.45;39.76;;
61270;Laerm;47150;53.032;8.960;2023-05-19T00:57:05;38.67;37.32;39.78;;
61270;Laerm;47150;53.032;8.960;2023-05-19T00:59:30;38.66;37.40;39.71;;
61270;Laerm;47150;53.032;8.960;2023-05-19T01:01:56;38.67;37.49;39.91;;
61270;Laerm;47150;53.032;8.960;2023-05-19T01:04:22;38.67;37.33;39.91;;
61270;Laerm;47150;53.032;8.960;2023-05-19T01:06:50;38.64;37.16;40.22;;
61270;Laerm;47150;53.032;8.960;2023-05-19T01:09:21;38.66;37.42;39.90;;
61270;Laerm;47150;53.032;8.960;2023-05-19T01:11:47;38.66;37.19;39.83;;
61270;Laerm;47150;53.032;8.960;2023-05-19T01:14:13;38.67;37.40;39.78;;
61270;Laerm;47150;53.032;8.960;2023-05-19T01:16:53;38.69;37.39;40.41;;
61270;Laerm;47150;53.032;8.960;2023-05-19T01:19:36;38.69;37.36;39.78;;
61270;Laerm;47150;53.032;8.960;2023-05-19T01:30:20;38.69;37.42;39.78;;
61270;Laerm;47150;53.032;8.960;2023-05-19T01:32:50;38.72;37.57;40.10;;
61270;Laerm;47150;53.032;8.960;2023-05-19T01:35:17;38.72;37.47;40.02;;
61270;Laerm;47150;53.032;8.960;2023-05-19T01:37:43;38.74;37.55;39.77;;
61270;Laerm;47150;53.032;8.960;2023-05-19T01:40:09;38.73;37.69;39.95;;
61270;Laerm;47150;53.032;8.960;2023-05-19T01:42:37;38.72;37.40;39.93;;
61270;Laerm;47150;53.032;8.960;2023-05-19T01:45:05;38.71;37.49;40.08;;
61270;Laerm;47150;53.032;8.960;2023-05-19T01:47:35;38.70;37.41;39.85;;
61270;Laerm;47150;53.032;8.960;2023-05-19T01:50:04;38.71;37.41;39.91;;
61270;Laerm;47150;53.032;8.960;2023-05-19T01:52:30;38.67;37.38;39.81;;
61270;Laerm;47150;53.032;8.960;2023-05-19T01:54:55;38.65;37.41;40.04;;
61270;Laerm;47150;53.032;8.960;2023-05-19T01:57:29;38.62;37.32;39.81;;
61270;Laerm;47150;53.032;8.960;2023-05-19T02:03:37;38.59;37.21;39.93;;
61270;Laerm;47150;53.032;8.960;2023-05-19T02:11:35;38.53;37.09;39.74;;
61270;Laerm;47150;53.032;8.960;2023-05-19T02:14:15;38.51;37.11;39.79;;
61270;Laerm;47150;53.032;8.960;2023-05-19T02:16:46;38.53;37.22;39.69;;
61270;Laerm;47150;53.032;8.960;2023-05-19T02:19:31;38.51;37.35;39.60;;
61270;Laerm;47150;53.032;8.960;2023-05-19T02:21:57;38.49;37.21;39.60;;
61270;Laerm;47150;53.032;8.960;2023-05-19T02:24:23;38.48;37.19;39.75;;
61270;Laerm;47150;53.032;8.960;2023-05-19T02:26:52;38.47;37.31;39.90;;
61270;Laerm;47150;53.032;8.960;2023-05-19T02:29:19;38.48;37.32;39.83;;
61270;Laerm;47150;53.032;8.960;2023-05-19T02:31:44;38.45;37.27;39.62;;
61270;Laerm;47150;53.032;8.960;2023-05-19T02:34:10;38.44;37.18;39.64;;
61270;Laerm;47150;53.032;8.960;2023-05-19T02:36:35;38.41;37.26;39.81;;
61270;Laerm;47150;53.032;8.960;2023-05-19T02:39:02;38.38;37.19;39.57;;
61270;Laerm;47150;53.032;8.960;2023-05-19T02:41:27;38.34;37.05;39.52;;
61270;Laerm;47150;53.032;8.960;2023-05-19T02:43:53;38.30;36.97;39.65;;
61270;Laerm;47150;53.032;8.960;2023-05-19T02:46:19;38.26;36.85;39.89;;
61270;Laerm;47150;53.032;8.960;2023-05-19T02:48:44;38.22;36.96;39.44;;
61270;Laerm;47150;53.032;8.960;2023-05-19T02:51:10;38.19;36.95;39.37;;
61270;Laerm;47150;53.032;8.960;2023-05-19T02:53:35;38.18;36.98;39.45;;
61270;Laerm;47150;53.032;8.960;2023-05-19T02:56:00;38.18;37.01;39.37;;
61270;Laerm;47150;53.032;8.960;2023-05-19T02:58:26;38.20;36.83;39.45;;
61270;Laerm;47150;53.032;8.960;2023-05-19T03:00:51;38.21;36.93;39.24;;
61270;Laerm;47150;53.032;8.960;2023-05-19T03:03:16;38.23;36.85;39.56;;
61270;Laerm;47150;53.032;8.960;2023-05-19T03:05:42;38.23;36.74;39.54;;
61270;Laerm;47150;53.032;8.960;2023-05-19T03:08:07;38.24;36.46;39.38;;
61270;Laerm;47150;53.032;8.960;2023-05-19T03:10:33;38.21;36.98;39.44;;
61270;Laerm;47150;53.032;8.960;2023-05-19T03:12:58;38.21;37.03;39.39;;
61270;Laerm;47150;53.032;8.960;2023-05-19T03:15:24;38.23;37.02;39.33;;
61270;Laerm;47150;53.032;8.960;2023-05-19T03:17:49;38.27;37.16;39.61;;
61270;Laerm;47150;53.032;8.960;2023-05-19T03:20:15;38.28;37.01;39.47;;
61270;Laerm;47150;53.032;8.960;2023-05-19T03:22:40;38.31;36.96;39.52;;
61270;Laerm;47150;53.032;8.960;2023-05-19T03:25:06;38.36;37.22;39.56;;
61270;Laerm;47150;53.032;8.960;2023-05-19T03:27:31;38.39;37.04;39.64;;
61270;Laerm;47150;53.032;8.960;2023-05-19T03:29:57;38.42;37.00;39.68;;
61270;Laerm;47150;53.032;8.960;2023-05-19T03:32:22;38.47;37.06;39.61;;
61270;Laerm;47150;53.032;8.960;2023-05-19T03:34:47;38.51;37.11;39.83;;
61270;Laerm;47150;53.032;8.960;2023-05-19T03:37:13;38.55;37.27;39.78;;
61270;Laerm;47150;53.032;8.960;2023-05-19T03:39:38;38.60;37.29;39.85;;
61270;Laerm;47150;53.032;8.960;2023-05-19T03:42:03;38.62;37.33;39.81;;
61270;Laerm;47150;53.032;8.960;2023-05-19T03:44:29;38.67;37.43;39.91;;
61270;Laerm;47150;53.032;8.960;2023-05-19T03:46:54;38.71;37.41;40.10;;
61270;Laerm;47150;53.032;8.960;2023-05-19T03:49:20;38.74;37.29;39.89;;
61270;Laerm;47150;53.032;8.960;2023-05-19T03:51:45;38.77;37.46;39.99;;
61270;Laerm;47150;53.032;8.960;2023-05-19T03:54:11;38.76;37.41;39.87;;
61270;Laerm;47150;53.032;8.960;2023-05-19T03:56:38;38.75;37.37;40.00;;
61270;Laerm;47150;53.032;8.960;2023-05-19T03:59:04;38.75;37.27;39.90;;
61270;Laerm;47150;53.032;8.960;2023-05-19T04:01:31;38.75;37.56;39.87;;
61270;Laerm;47150;53.032;8.960;2023-05-19T04:03:56;38.77;37.55;40.09;;
61270;Laerm;47150;53.032;8.960;2023-05-19T04:06:22;38.78;37.39;39.94;;
61270;Laerm;47150;53.032;8.960;2023-05-19T04:08:47;38.81;37.71;39.94;;
61270;Laerm;47150;53.032;8.960;2023-05-19T04:11:13;38.81;37.47;40.00;;
61270;Laerm;47150;53.032;8.960;2023-05-19T04:13:38;38.82;37.44;40.09;;
61270;Laerm;47150;53.032;8.960;2023-05-19T04:16:04;38.82;37.59;40.07;;
61270;Laerm;47150;53.032;8.960;2023-05-19T04:18:30;38.83;37.50;40.15;;
61270;Laerm;47150;53.032;8.960;2023-05-19T04:20:55;38.84;37.49;40.28;;
61270;Laerm;47150;53.032;8.960;2023-05-19T04:23:20;38.84;37.57;40.21;;
61270;Laerm;47150;53.032;8.960;2023-05-19T04:25:46;38.83;37.54;40.09;;
61270;Laerm;47150;53.032;8.960;2023-05-19T04:28:13;38.83;37.50;40.08;;
61270;Laerm;47150;53.032;8.960;2023-05-19T04:30:39;38.83;37.61;40.08;;
61270;Laerm;47150;53.032;8.960;2023-05-19T04:33:04;38.84;37.31;40.13;;
61270;Laerm;47150;53.032;8.960;2023-05-19T04:35:31;38.83;37.51;39.99;;
61270;Laerm;47150;53.032;8.960;2023-05-19T04:37:57;38.82;37.51;40.30;;
61270;Laerm;47150;53.032;8.960;2023-05-19T04:40:22;38.83;37.43;40.26;;
61270;Laerm;47150;53.032;8.960;2023-05-19T04:42:49;38.84;37.46;40.07;;
61270;Laerm;47150;53.032;8.960;2023-05-19T04:45:16;38.84;37.44;40.12;;
61270;Laerm;47150;53.032;8.960;2023-05-19T04:47:41;38.84;37.54;40.13;;
61270;Laerm;47150;53.032;8.960;2023-05-19T04:50:07;38.86;37.25;40.07;;
61270;Laerm;47150;53.032;8.960;2023-05-19T04:52:33;38.87;37.49;40.07;;
61270;Laerm;47150;53.032;8.960;2023-05-19T04:54:58;38.86;37.72;40.15;;
61270;Laerm;47150;53.032;8.960;2023-05-19T04:57:24;38.88;37.59;39.98;;
61270;Laerm;47150;53.032;8.960;2023-05-19T04:59:49;38.88;37.40;40.01;;
61270;Laerm;47150;53.032;8.960;2023-05-19T05:02:15;38.89;37.64;40.13;;
61270;Laerm;47150;53.032;8.960;2023-05-19T05:04:40;38.90;37.46;40.20;;
61270;Laerm;47150;53.032;8.960;2023-05-19T05:07:08;38.89;37.43;40.32;;
61270;Laerm;47150;53.032;8.960;2023-05-19T05:09:33;38.90;37.67;40.17;;
61270;Laerm;47150;53.032;8.960;2023-05-19T05:12:00;38.89;37.51;40.15;;
61270;Laerm;47150;53.032;8.960;2023-05-19T05:14:26;38.91;37.52;40.03;;
61270;Laerm;47150;53.032;8.960;2023-05-19T05:16:52;38.91;37.37;40.11;;
61270;Laerm;47150;53.032;8.960;2023-05-19T05:19:18;38.92;37.50;40.11;;
61270;Laerm;47150;53.032;8.960;2023-05-19T05:21:43;38.93;37.57;40.20;;
61270;Laerm;47150;53.032;8.960;2023-05-19T05:24:10;38.93;37.59;40.09;;
61270;Laerm;47150;53.032;8.960;2023-05-19T05:26:36;38.94;37.50;40.12;;
61270;Laerm;47150;53.032;8.960;2023-05-19T05:29:02;38.94;37.63;40.15;;
61270;Laerm;47150;53.032;8.960;2023-05-19T05:31:28;38.94;37.73;40.14;;
61270;Laerm;47150;53.032;8.960;2023-05-19T05:33:53;38.96;37.71;40.18;;
61270;Laerm;47150;53.032;8.960;2023-05-19T05:36:19;38.96;37.60;40.71;;
61270;Laerm;47150;53.032;8.960;2023-05-19T05:38:44;38.96;37.48;40.19;;
61270;Laerm;47150;53.032;8.960;2023-05-19T05:41:10;38.97;37.51;40.21;;
61270;Laerm;47150;53.032;8.960;2023-05-19T05:43:35;38.98;37.55;40.34;;
61270;Laerm;47150;53.032;8.960;2023-05-19T05:46:00;38.99;37.59;40.25;;
61270;Laerm;47150;53.032;8.960;2023-05-19T05:48:26;38.99;37.45;40.50;;
61270;Laerm;47150;53.032;8.960;2023-05-19T05:50:52;39.01;37.53;40.27;;
61270;Laerm;47150;53.032;8.960;2023-05-19T05:53:19;39.01;37.64;40.20;;
61270;Laerm;47150;53.032;8.960;2023-05-19T05:55:46;39.01;37.73;40.10;;
61270;Laerm;47150;53.032;8.960;2023-05-19T05:58:11;39.01;37.61;40.31;;
61270;Laerm;47150;53.032;8.960;2023-05-19T06:00:39;39.01;37.45;40.27;;
61270;Laerm;47150;53.032;8.960;2023-05-19T06:03:07;39.01;37.80;40.22;;
61270;Laerm;47150;53.032;8.960;2023-05-19T06:05:34;39.01;37.62;40.34;;
61270;Laerm;47150;53.032;8.960;2023-05-19T06:07:59;39.01;37.73;40.20;;
61270;Laerm;47150;53.032;8.960;2023-05-19T06:10:24;39.01;37.65;40.48;;
61270;Laerm;47150;53.032;8.960;2023-05-19T06:12:50;39.01;37.69;40.53;;
61270;Laerm;47150;53.032;8.960;2023-05-19T06:15:15;39.00;37.51;40.18;;
61270;Laerm;47150;53.032;8.960;2023-05-19T06:17:41;38.99;37.49;40.20;;
61270;Laerm;47150;53.032;8.960;2023-05-19T06:20:06;38.99;37.82;40.11;;
61270;Laerm;47150;53.032;8.960;2023-05-19T06:22:34;39.00;37.36;40.30;;
61270;Laerm;47150;53.032;8.960;2023-05-19T06:24:59;39.00;37.37;40.19;;
61270;Laerm;47150;53.032;8.960;2023-05-19T06:27:25;38.99;37.40;40.26;;
61270;Laerm;47150;53.032;8.960;2023-05-19T06:29:50;38.99;37.65;40.27;;
61270;Laerm;47150;53.032;8.960;2023-05-19T06:32:15;38.99;37.77;40.34;;
61270;Laerm;47150;53.032;8.960;2023-05-19T06:34:41;39.00;37.54;40.30;;
61270;Laerm;47150;53.032;8.960;2023-05-19T06:37:06;38.98;37.71;40.13;;
61270;Laerm;47150;53.032;8.960;2023-05-19T06:39:31;38.96;37.59;40.27;;
61270;Laerm;47150;53.032;8.960;2023-05-19T06:41:57;38.96;37.64;40.28;;
61270;Laerm;47150;53.032;8.960;2023-05-19T06:44:23;38.93;37.59;40.39;;
61270;Laerm;47150;53.032;8.960;2023-05-19T06:46:49;38.92;37.62;40.16;;
61270;Laerm;47150;53.032;8.960;2023-05-19T06:49:14;38.91;37.53;40.25;;
61270;Laerm;47150;53.032;8.960;2023-05-19T06:51:39;38.92;37.48;40.11;;
61270;Laerm;47150;53.032;8.960;2023-05-19T06:54:05;38.88;37.57;40.03;;
61270;Laerm;47150;53.032;8.960;2023-05-19T06:56:31;38.84;37.49;40.02;;
61270;Laerm;47150;53.032;8.960;2023-05-19T06:58:56;38.84;37.42;40.26;;
61270;Laerm;47150;53.032;8.960;2023-05-19T07:01:22;38.82;37.37;40.16;;
61270;Laerm;47150;53.032;8.960;2023-05-19T07:03:47;38.75;37.14;39.93;;
61270;Laerm;47150;53.032;8.960;2023-05-19T07:06:12;38.75;37.26;39.93;;
61270;Laerm;47150;53.032;8.960;2023-05-19T07:08:38;38.72;37.38;39.93;;
61270;Laerm;47150;53.032;8.960;2023-05-19T07:11:03;38.67;37.48;39.98;;
61270;Laerm;47150;53.032;8.960;2023-05-19T07:13:29;38.68;37.39;39.91;;
61270;Laerm;47150;53.032;8.960;2023-05-19T07:15:54;38.66;37.42;39.98;;
61270;Laerm;47150;53.032;8.960;2023-05-19T07:18:22;38.62;36.82;39.84;;
61270;Laerm;47150;53.032;8.960;2023-05-19T07:20:48;38.65;37.13;39.99;;
61270;Laerm;47150;53.032;8.960;2023-05-19T07:23:13;38.58;36.95;39.86;;
61270;Laerm;47150;53.032;8.960;2023-05-19T07:25:38;38.47;37.13;39.95;;
61270;Laerm;47150;53.032;8.960;2023-05-19T07:28:04;38.42;37.10;39.66;;
61270;Laerm;47150;53.032;8.960;2023-05-19T07:30:29;38.35;37.00;39.64;;
61270;Laerm;47150;53.032;8.960;2023-05-19T07:32:55;38.26;36.90;39.54;;
61270;Laerm;47150;53.032;8.960;2023-05-19T07:35:21;38.24;36.81;39.65;;
61270;Laerm;47150;53.032;8.960;2023-05-19T07:37:50;38.22;36.68;39.64;;
61270;Laerm;47150;53.032;8.960;2023-05-19T07:40:16;38.14;36.83;39.41;;
61270;Laerm;47150;53.032;8.960;2023-05-19T07:42:42;38.09;36.90;39.20;;
61270;Laerm;47150;53.032;8.960;2023-05-19T07:45:09;38.14;36.83;39.40;;
61270;Laerm;47150;53.032;8.960;2023-05-19T07:47:34;38.13;36.52;39.50;;
61270;Laerm;47150;53.032;8.960;2023-05-19T07:49:59;38.09;36.46;39.35;;
61270;Laerm;47150;53.032;8.960;2023-05-19T07:52:25;37.95;36.59;39.37;;
61270;Laerm;47150;53.032;8.960;2023-05-19T07:54:50;37.96;36.75;39.31;;
61270;Laerm;47150;53.032;8.960;2023-05-19T07:57:17;37.85;36.30;39.57;;
61270;Laerm;47150;53.032;8.960;2023-05-19T07:59:43;37.85;36.33;39.08;;
61270;Laerm;47150;53.032;8.960;2023-05-19T08:02:08;37.88;36.57;39.11;;
61270;Laerm;47150;53.032;8.960;2023-05-19T08:04:33;37.85;36.37;39.28;;
61270;Laerm;47150;53.032;8.960;2023-05-19T08:06:59;37.81;36.36;39.05;;
61270;Laerm;47150;53.032;8.960;2023-05-19T08:09:24;37.81;36.38;39.17;;
61270;Laerm;47150;53.032;8.960;2023-05-19T08:11:50;37.70;36.32;39.01;;
61270;Laerm;47150;53.032;8.960;2023-05-19T08:14:15;37.69;36.07;39.15;;
61270;Laerm;47150;53.032;8.960;2023-05-19T08:16:41;37.70;36.28;39.18;;
61270;Laerm;47150;53.032;8.960;2023-05-19T08:19:07;37.69;36.46;39.07;;
61270;Laerm;47150;53.032;8.960;2023-05-19T08:21:33;37.68;36.22;39.09;;
61270;Laerm;47150;53.032;8.960;2023-05-19T08:24:00;37.61;36.22;39.09;;
61270;Laerm;47150;53.032;8.960;2023-05-19T08:26:26;37.57;36.30;38.85;;
61270;Laerm;47150;53.032;8.960;2023-05-19T08:28:52;37.57;36.38;38.88;;
61270;Laerm;47150;53.032;8.960;2023-05-19T08:31:17;37.49;36.22;38.69;;
61270;Laerm;47150;53.032;8.960;2023-05-19T08:33:43;37.47;36.07;39.05;;
61270;Laerm;47150;53.032;8.960;2023-05-19T08:36:08;37.57;36.29;38.88;;
61270;Laerm;47150;53.032;8.960;2023-05-19T08:38:34;37.43;36.16;38.81;;
61270;Laerm;47150;53.032;8.960;2023-05-19T08:40:59;37.36;35.86;38.60;;
61270;Laerm;47150;53.032;8.960;2023-05-19T08:43:25;37.30;35.83;38.73;;
61270;Laerm;47150;53.032;8.960;2023-05-19T08:45:51;37.19;35.74;38.64;;
61270;Laerm;47150;53.032;8.960;2023-05-19T08:48:18;37.14;35.88;38.41;;
61270;Laerm;47150;53.032;8.960;2023-05-19T08:53:49;36.91;35.59;38.31;;
61270;Laerm;47150;53.032;8.960;2023-05-19T08:56:22;36.90;35.50;38.10;;
61270;Laerm;47150;53.032;8.960;2023-05-19T08:58:50;37.01;35.39;38.27;;
61270;Laerm;47150;53.032;8.960;2023-05-19T09:01:15;36.78;35.49;38.27;;
61270;Laerm;47150;53.032;8.960;2023-05-19T09:03:43;36.71;35.40;38.25;;
61270;Laerm;47150;53.032;8.960;2023-05-19T09:06:09;36.64;35.18;38.13;;
61270;Laerm;47150;53.032;8.960;2023-05-19T09:08:37;36.58;35.01;37.95;;
61270;Laerm;47150;53.032;8.960;2023-05-19T09:11:02;36.71;35.45;38.06;;
61270;Laerm;47150;53.032;8.960;2023-05-19T09:13:28;36.64;35.15;38.32;;
61270;Laerm;47150;53.032;8.960;2023-05-19T09:15:55;36.43;34.99;37.78;;
61270;Laerm;47150;53.032;8.960;2023-05-19T09:18:23;36.32;34.87;38.04;;
61270;Laerm;47150;53.032;8.960;2023-05-19T09:20:48;36.39;34.83;37.77;;
61270;Laerm;47150;53.032;8.960;2023-05-19T09:23:16;36.28;34.65;37.51;;
61270;Laerm;47150;53.032;8.960;2023-05-19T09:25:48;36.16;34.75;37.45;;
61270;Laerm;47150;53.032;8.960;2023-05-19T09:28:25;36.12;34.61;37.51;;
61270;Laerm;47150;53.032;8.960;2023-05-19T09:31:07;35.95;34.54;37.27;;
61270;Laerm;47150;53.032;8.960;2023-05-19T09:33:37;35.93;34.43;37.26;;
61270;Laerm;47150;53.032;8.960;2023-05-19T09:36:03;35.91;34.68;37.11;;
61270;Laerm;47150;53.032;8.960;2023-05-19T09:38:31;35.78;34.30;44.35;;
61270;Laerm;47150;53.032;8.960;2023-05-19T09:40:58;35.67;34.12;41.70;;
61270;Laerm;47150;53.032;8.960;2023-05-19T09:43:29;35.58;34.20;37.00;;
61270;Laerm;47150;53.032;8.960;2023-05-19T09:46:09;35.50;34.03;36.74;;
61270;Laerm;47150;53.032;8.960;2023-05-19T09:48:37;35.47;33.90;36.87;;
61270;Laerm;47150;53.032;8.960;2023-05-19T09:51:04;35.50;34.10;36.83;;
61270;Laerm;47150;53.032;8.960;2023-05-19T09:53:33;35.59;34.06;37.53;;
61270;Laerm;47150;53.032;8.960;2023-05-19T09:55:59;35.39;33.97;37.12;;
61270;Laerm;47150;53.032;8.960;2023-05-19T09:58:30;35.35;33.93;36.63;;
61270;Laerm;47150;53.032;8.960;2023-05-19T10:00:56;35.20;33.78;37.17;;
61270;Laerm;47150;53.032;8.960;2023-05-19T10:03:22;35.18;33.75;36.42;;
61270;Laerm;47150;53.032;8.960;2023-05-19T10:05:49;35.31;33.82;37.89;;
61270;Laerm;47150;53.032;8.960;2023-05-19T10:08:16;35.25;33.77;36.47;;
61270;Laerm;47150;53.032;8.960;2023-05-19T10:10:43;35.14;33.82;36.64;;
61270;Laerm;47150;53.032;8.960;2023-05-19T10:13:09;35.16;33.69;36.45;;
61270;Laerm;47150;53.032;8.960;2023-05-19T10:15:36;35.26;33.77;36.65;;
61270;Laerm;47150;53.032;8.960;2023-05-19T10:18:02;35.22;33.77;36.53;;
61270;Laerm;47150;53.032;8.960;2023-05-19T10:20:28;35.12;33.61;36.45;;
61270;Laerm;47150;53.032;8.960;2023-05-19T10:22:53;35.04;33.49;36.36;;
61270;Laerm;47150;53.032;8.960;2023-05-19T10:25:19;34.58;32.86;35.84;;
61270;Laerm;47150;53.032;8.960;2023-05-19T10:27:54;34.59;33.25;37.26;;
61270;Laerm;47150;53.032;8.960;2023-05-19T10:30:38;34.27;32.89;35.63;;
61270;Laerm;47150;53.032;8.960;2023-05-19T10:33:07;34.14;32.74;48.05;;
61270;Laerm;47150;53.032;8.960;2023-05-19T10:41:29;34.61;32.79;38.44;;
61270;Laerm;47150;53.032;8.960;2023-05-19T10:46:54;34.58;33.09;35.90;;
61270;Laerm;47150;53.032;8.960;2023-05-19T10:49:20;34.51;32.98;39.73;;
61270;Laerm;47150;53.032;8.960;2023-05-19T10:51:46;34.08;32.72;41.99;;
61270;Laerm;47150;53.032;8.960;2023-05-19T10:54:12;33.91;32.24;40.60;;
61270;Laerm;47150;53.032;8.960;2023-05-19T10:56:42;33.66;31.57;41.76;;
61270;Laerm;47150;53.032;8.960;2023-05-19T10:59:30;33.47;32.10;34.83;;
61270;Laerm;47150;53.032;8.960;2023-05-19T11:01:56;33.46;32.07;35.64;;
61270;Laerm;47150;53.032;8.960;2023-05-19T11:04:44;33.97;32.51;38.65;;
61270;Laerm;47150;53.032;8.960;2023-05-19T11:07:16;34.14;32.66;35.60;;
61270;Laerm;47150;53.032;8.960;2023-05-19T11:09:42;34.23;32.79;36.04;;
61270;Laerm;47150;53.032;8.960;2023-05-19T11:12:08;34.07;32.48;35.69;;
61270;Laerm;47150;53.032;8.960;2023-05-19T11:14:35;33.68;32.13;39.10;;
61270;Laerm;47150;53.032;8.960;2023-05-19T11:17:00;33.45;31.99;36.03;;
61270;Laerm;47150;53.032;8.960;2023-05-19T11:19:34;33.55;32.03;35.11;;
61270;Laerm;47150;53.032;8.960;2023-05-19T11:22:08;33.81;32.36;35.14;;
61270;Laerm;47150;53.032;8.960;2023-05-19T11:24:44;33.76;32.13;35.28;;
61270;Laerm;47150;53.032;8.960;2023-05-19T11:27:30;33.65;32.13;36.20;;
61270;Laerm;47150;53.032;8.960;2023-05-19T11:29:58;33.50;32.14;34.87;;
61270;Laerm;47150;53.032;8.960;2023-05-19T11:32:27;33.38;31.66;36.08;;
61270;Laerm;47150;53.032;8.960;2023-05-19T11:34:54;33.26;31.73;34.63;;
61270;Laerm;47150;53.032;8.960;2023-05-19T11:37:20;33.57;31.98;35.02;;
61270;Laerm;47150;53.032;8.960;2023-05-19T11:39:45;33.78;32.28;36.76;;
61270;Laerm;47150;53.032;8.960;2023-05-19T11:42:11;33.55;31.97;38.21;;
61270;Laerm;47150;53.032;8.960;2023-05-19T11:44:37;33.47;32.04;35.69;;
61270;Laerm;47150;53.032;8.960;2023-05-19T11:47:03;33.50;32.08;35.01;;
61270;Laerm;47150;53.032;8.960;2023-05-19T11:49:29;33.59;32.16;37.70;;
61270;Laerm;47150;53.032;8.960;2023-05-19T11:51:54;33.62;32.31;35.51;;
61270;Laerm;47150;53.032;8.960;2023-05-19T11:54:20;33.40;31.82;34.84;;
61270;Laerm;47150;53.032;8.960;2023-05-19T11:56:46;33.40;32.08;41.27;;
61270;Laerm;47150;53.032;8.960;2023-05-19T11:59:11;33.20;31.81;34.61;;
61270;Laerm;47150;53.032;8.960;2023-05-19T12:01:36;33.22;31.30;34.78;;
61270;Laerm;47150;53.032;8.960;2023-05-19T12:04:07;33.35;31.78;36.96;;
61270;Laerm;47150;53.032;8.960;2023-05-19T12:06:32;33.34;31.96;34.62;;
61270;Laerm;47150;53.032;8.960;2023-05-19T12:08:58;33.35;31.77;36.29;;
61270;Laerm;47150;53.032;8.960;2023-05-19T12:11:24;33.43;31.91;38.16;;
61270;Laerm;47150;53.032;8.960;2023-05-19T12:13:54;33.45;32.04;38.96;;
61270;Laerm;47150;53.032;8.960;2023-05-19T12:16:22;33.43;32.07;44.16;;
61270;Laerm;47150;53.032;8.960;2023-05-19T12:18:48;33.25;31.90;37.28;;
61270;Laerm;47150;53.032;8.960;2023-05-19T12:21:13;33.19;31.85;40.96;;
61270;Laerm;47150;53.032;8.960;2023-05-19T12:23:39;33.12;31.86;34.93;;
61270;Laerm;47150;53.032;8.960;2023-05-19T12:26:06;33.16;31.72;36.01;;
61270;Laerm;47150;53.032;8.960;2023-05-19T12:28:32;33.19;31.94;34.48;;
61270;Laerm;47150;53.032;8.960;2023-05-19T12:30:57;33.24;31.82;34.78;;
61270;Laerm;47150;53.032;8.960;2023-05-19T12:33:24;33.54;32.24;35.51;;
61270;Laerm;47150;53.032;8.960;2023-05-19T12:35:50;33.64;32.20;34.91;;
61270;Laerm;47150;53.032;8.960;2023-05-19T12:38:16;33.73;32.22;35.13;;
61270;Laerm;47150;53.032;8.960;2023-05-19T12:40:42;33.74;32.28;37.00;;
61270;Laerm;47150;53.032;8.960;2023-05-19T12:43:21;33.55;31.99;37.19;;
61270;Laerm;47150;53.032;8.960;2023-05-19T12:45:47;33.53;32.05;35.20;;
61270;Laerm;47150;53.032;8.960;2023-05-19T12:48:13;33.43;31.87;35.43;;
61270;Laerm;47150;53.032;8.960;2023-05-19T12:50:42;33.52;31.72;41.70;;
61270;Laerm;47150;53.032;8.960;2023-05-19T12:53:13;33.42;31.85;40.30;;
61270;Laerm;47150;53.032;8.960;2023-05-19T12:55:42;33.11;31.73;39.89;;
61270;Laerm;47150;53.032;8.960;2023-05-19T12:58:08;33.06;31.52;39.83;;
61270;Laerm;47150;53.032;8.960;2023-05-19T13:00:39;33.07;31.54;34.32;;
61270;Laerm;47150;53.032;8.960;2023-05-19T13:03:05;33.13;31.74;40.90;;
61270;Laerm;47150;53.032;8.960;2023-05-19T13:05:36;33.07;31.20;43.43;;
61270;Laerm;47150;53.032;8.960;2023-05-19T13:08:05;32.92;31.16;42.44;;
61270;Laerm;47150;53.032;8.960;2023-05-19T13:10:33;32.78;31.26;34.04;;
61270;Laerm;47150;53.032;8.960;2023-05-19T13:12:59;32.93;31.29;37.61;;
61270;Laerm;47150;53.032;8.960;2023-05-19T13:15:26;33.27;31.73;34.90;;
61270;Laerm;47150;53.032;8.960;2023-05-19T13:17:52;33.48;32.16;34.74;;
61270;Laerm;47150;53.032;8.960;2023-05-19T13:20:19;33.60;31.86;35.01;;
61270;Laerm;47150;53.032;8.960;2023-05-19T13:22:46;33.19;31.74;34.66;;
61270;Laerm;47150;53.032;8.960;2023-05-19T13:25:12;33.06;31.52;34.61;;
61270;Laerm;47150;53.032;8.960;2023-05-19T13:27:37;33.02;31.52;34.30;;
61270;Laerm;47150;53.032;8.960;2023-05-19T13:30:06;33.16;31.74;41.71;;
61270;Laerm;47150;53.032;8.960;2023-05-19T13:32:32;33.15;31.56;38.85;;
61270;Laerm;47150;53.032;8.960;2023-05-19T13:34:59;33.39;31.77;49.89;;
61270;Laerm;47150;53.032;8.960;2023-05-19T13:37:24;33.14;31.59;39.97;;
61270;Laerm;47150;53.032;8.960;2023-05-19T13:39:50;33.15;31.73;35.25;;
61270;Laerm;47150;53.032;8.960;2023-05-19T13:42:15;33.11;31.77;37.64;;
61270;Laerm;47150;53.032;8.960;2023-05-19T13:44:42;33.24;31.53;39.00;;
61270;Laerm;47150;53.032;8.960;2023-05-19T13:47:07;33.19;31.68;39.87;;
61270;Laerm;47150;53.032;8.960;2023-05-19T13:49:32;33.16;31.44;34.69;;
61270;Laerm;47150;53.032;8.960;2023-05-19T13:51:58;32.91;31.37;34.41;;
61270;Laerm;47150;53.032;8.960;2023-05-19T13:54:24;32.92;31.53;39.01;;
61270;Laerm;47150;53.032;8.960;2023-05-19T13:56:49;32.83;31.42;37.26;;
61270;Laerm;47150;53.032;8.960;2023-05-19T13:59:15;32.82;31.48;38.91;;
61270;Laerm;47150;53.032;8.960;2023-05-19T14:01:41;32.95;31.60;40.35;;
61270;Laerm;47150;53.032;8.960;2023-05-19T14:04:07;32.98;31.59;34.86;;
61270;Laerm;47150;53.032;8.960;2023-05-19T14:06:33;32.91;31.53;36.15;;
61270;Laerm;47150;53.032;8.960;2023-05-19T14:08:58;32.91;31.61;35.75;;
61270;Laerm;47150;53.032;8.960;2023-05-19T14:11:24;33.13;31.61;34.48;;